Iblea — IBFK — position and weather

sailwx.info

Track history (hours):
 
Tides and Currents Weather Stations Pressure Air Temp Water Temp Dewpoint Dewpoint Depression Visibility Wind Speed Wind Dir Waves Ship Positions

Iblea

Last reported at 2014-Sep-24 19:33 UTC. Time now 2014-Oct-02 16:29 UTC.
Position N 31°13' E 029°43'.

Length 176 m; draft 10.2 m.

Type: Ship (hazmat cat A). MMSI: 247087700.

Date/timePositionNaut miles runAvg speedWind from/ knotsBaromVisibWave heightAir tempDewpointWater temp
2014-Sep-24 19:33N 31°13' E 029°43'0 0.0
2014-Sep-24 14:24N 31°13' E 029°43'0 0.0
2014-Sep-24 00:15N 31°13' E 029°43'0 0.0
2014-Sep-23 23:33N 31°13' E 029°43'0 0.0
2014-Sep-23 21:09N 31°13' E 029°43'0 0.0
2014-Sep-23 18:24N 31°13' E 029°43'0 0.0
2014-Sep-23 17:30N 31°13' E 029°43'0 0.0
2014-Sep-23 15:33N 31°13' E 029°43'0 0.0
2014-Sep-23 14:20N 31°13' E 029°43'44211.7
2014-Sep-22 00:32N 34°36' E 021°55'5613.0
2014-Sep-21 20:13N 34°48' E 020°48'1212.7
2014-Sep-21 19:16N 34°49' E 020°33'1113.0
2014-Sep-21 18:24N 34°52' E 020°20'16812.8
2014-Sep-21 05:16N 35°25' E 016°58'2212.8
2014-Sep-21 03:33N 35°29' E 016°31'1312.8
2014-Sep-21 02:33N 35°32' E 016°16'1312.6
2014-Sep-21 01:32N 35°34' E 016°01'1313.0
2014-Sep-21 00:30N 35°37' E 015°44'1212.9
2014-Sep-20 23:34N 35°39' E 015°30'1313.4
2014-Sep-20 22:33N 35°42' E 015°14'1414.0
2014-Sep-20 21:33N 35°47' E 014°58'9 9.0
2014-Sep-20 20:33N 35°52' E 014°48'0 0.0
2014-Sep-20 19:32N 35°52' E 014°48'0 0.0
2014-Sep-20 18:32N 35°52' E 014°48'0 0.0
2014-Sep-20 17:20N 35°52' E 014°48'0 0.0
2014-Sep-20 16:32N 35°52' E 014°48'0 0.0
2014-Sep-20 15:32N 35°52' E 014°48'0 0.0
2014-Sep-20 14:32N 35°52' E 014°48'0 0.0
2014-Sep-20 13:32N 35°52' E 014°48'0 0.0
2014-Sep-20 12:32N 35°52' E 014°48'0 0.0
2014-Sep-20 11:32N 35°52' E 014°48'0 0.0
2014-Sep-20 10:32N 35°52' E 014°48'0 0.0
2014-Sep-20 09:32N 35°52' E 014°48'0 0.1
2014-Sep-20 08:33N 35°52' E 014°48'6 6.2
2014-Sep-20 07:33N 35°50' E 014°41'7 0.8
2014-Sep-19 23:33N 35°49' E 014°33'0 0.0
2014-Sep-19 22:30N 35°49' E 014°33'0 0.0
2014-Sep-19 09:18N 35°49' E 014°33'0 0.0
2014-Sep-19 07:30N 35°49' E 014°33'0 0.0
2014-Sep-19 06:18N 35°49' E 014°33'0 0.0
2014-Sep-19 05:30N 35°49' E 014°33'0 0.0
2014-Sep-18 22:30N 35°49' E 014°33'0 0.0
2014-Sep-18 20:30N 35°49' E 014°33'0 0.0
2014-Sep-18 13:09N 35°49' E 014°33'1 1.4
2014-Sep-18 12:33N 35°49' E 014°34'1210.2
2014-Sep-18 11:26N 35°44' E 014°46'4 4.7
2014-Sep-18 10:31N 35°42' E 014°51'1 0.1
2014-Sep-18 03:29N 35°42' E 014°52'0 0.2
2014-Sep-18 02:33N 35°42' E 014°52'0 0.1
2014-Sep-18 01:26N 35°42' E 014°52'0 0.1
2014-Sep-18 00:30N 35°42' E 014°52'0 0.2
2014-Sep-17 23:17N 35°42' E 014°52'1 1.5
2014-Sep-17 22:34N 35°43' E 014°52'1612.0
2014-Sep-17 21:12N 35°59' E 014°51'6 9.9
2014-Sep-17 20:33N 36°05' E 014°47'1312.6
2014-Sep-17 19:33N 36°15' E 014°57'  
Track history (hours):
 
Tides and Currents Weather Stations Pressure Air Temp Water Temp Dewpoint Dewpoint Depression Visibility Wind Speed Wind Dir Waves Ship Positions

Iblea

Last reported at 2014-Sep-24 19:33 UTC. Time now 2014-Oct-02 16:29 UTC.
Position N 31°13' E 029°43'.

Length 176 m; draft 10.2 m.

Type: Ship (hazmat cat A). MMSI: 247087700.

Date/timePositionNaut miles runAvg speedWind from/ knotsBaromVisibWave heightAir tempDewpointWater temp
2014-Sep-24 19:33N 31°13' E 029°43'0 0.0
2014-Sep-24 14:24N 31°13' E 029°43'0 0.0
2014-Sep-24 00:15N 31°13' E 029°43'0 0.0
2014-Sep-23 23:33N 31°13' E 029°43'0 0.0
2014-Sep-23 21:09N 31°13' E 029°43'0 0.0
2014-Sep-23 18:24N 31°13' E 029°43'0 0.0
2014-Sep-23 17:30N 31°13' E 029°43'0 0.0
2014-Sep-23 15:33N 31°13' E 029°43'0 0.0
2014-Sep-23 14:20N 31°13' E 029°43'44211.7
2014-Sep-22 00:32N 34°36' E 021°55'5613.0
2014-Sep-21 20:13N 34°48' E 020°48'1212.7
2014-Sep-21 19:16N 34°49' E 020°33'1113.0
2014-Sep-21 18:24N 34°52' E 020°20'16812.8
2014-Sep-21 05:16N 35°25' E 016°58'2212.8
2014-Sep-21 03:33N 35°29' E 016°31'1312.8
2014-Sep-21 02:33N 35°32' E 016°16'1312.6
2014-Sep-21 01:32N 35°34' E 016°01'1313.0
2014-Sep-21 00:30N 35°37' E 015°44'1212.9
2014-Sep-20 23:34N 35°39' E 015°30'1313.4
2014-Sep-20 22:33N 35°42' E 015°14'1414.0
2014-Sep-20 21:33N 35°47' E 014°58'9 9.0
2014-Sep-20 20:33N 35°52' E 014°48'0 0.0
2014-Sep-20 19:32N 35°52' E 014°48'0 0.0
2014-Sep-20 18:32N 35°52' E 014°48'0 0.0
2014-Sep-20 17:20N 35°52' E 014°48'0 0.0
2014-Sep-20 16:32N 35°52' E 014°48'0 0.0
2014-Sep-20 15:32N 35°52' E 014°48'0 0.0
2014-Sep-20 14:32N 35°52' E 014°48'0 0.0
2014-Sep-20 13:32N 35°52' E 014°48'0 0.0
2014-Sep-20 12:32N 35°52' E 014°48'0 0.0
2014-Sep-20 11:32N 35°52' E 014°48'0 0.0
2014-Sep-20 10:32N 35°52' E 014°48'0 0.0
2014-Sep-20 09:32N 35°52' E 014°48'0 0.1
2014-Sep-20 08:33N 35°52' E 014°48'6 6.2
2014-Sep-20 07:33N 35°50' E 014°41'7 0.8
2014-Sep-19 23:33N 35°49' E 014°33'0 0.0
2014-Sep-19 22:30N 35°49' E 014°33'0 0.0
2014-Sep-19 09:18N 35°49' E 014°33'0 0.0
2014-Sep-19 07:30N 35°49' E 014°33'0 0.0
2014-Sep-19 06:18N 35°49' E 014°33'0 0.0
2014-Sep-19 05:30N 35°49' E 014°33'0 0.0
2014-Sep-18 22:30N 35°49' E 014°33'0 0.0
2014-Sep-18 20:30N 35°49' E 014°33'0 0.0
2014-Sep-18 13:09N 35°49' E 014°33'1 1.4
2014-Sep-18 12:33N 35°49' E 014°34'1210.2
2014-Sep-18 11:26N 35°44' E 014°46'4 4.7
2014-Sep-18 10:31N 35°42' E 014°51'1 0.1
2014-Sep-18 03:29N 35°42' E 014°52'0 0.2
2014-Sep-18 02:33N 35°42' E 014°52'0 0.1
2014-Sep-18 01:26N 35°42' E 014°52'0 0.1
2014-Sep-18 00:30N 35°42' E 014°52'0 0.2
2014-Sep-17 23:17N 35°42' E 014°52'1 1.5
2014-Sep-17 22:34N 35°43' E 014°52'1612.0
2014-Sep-17 21:12N 35°59' E 014°51'6 9.9
2014-Sep-17 20:33N 36°05' E 014°47'1312.6
2014-Sep-17 19:33N 36°15' E 014°57'  

Dump ship's entire track history